sensor_id;sensor_type;location;lat;lon;timestamp;P1;durP1;ratioP1;P2;durP2;ratioP2
34924;SDS011;21130;51.728;8.748;2022-12-24T00:00:54;17.92;;;7.20;;
34924;SDS011;21130;51.728;8.748;2022-12-24T00:03:22;20.33;;;6.40;;
34924;SDS011;21130;51.728;8.748;2022-12-24T00:05:48;17.27;;;7.38;;
34924;SDS011;21130;51.728;8.748;2022-12-24T00:08:15;15.60;;;6.78;;
34924;SDS011;21130;51.728;8.748;2022-12-24T00:10:42;18.92;;;7.35;;
34924;SDS011;21130;51.728;8.748;2022-12-24T00:13:09;18.15;;;8.70;;
34924;SDS011;21130;51.728;8.748;2022-12-24T00:15:35;14.60;;;7.53;;
34924;SDS011;21130;51.728;8.748;2022-12-24T00:18:02;14.80;;;7.90;;
34924;SDS011;21130;51.728;8.748;2022-12-24T00:20:29;18.08;;;8.50;;
34924;SDS011;21130;51.728;8.748;2022-12-24T00:22:56;19.52;;;9.43;;
34924;SDS011;21130;51.728;8.748;2022-12-24T00:25:22;25.50;;;10.98;;
34924;SDS011;21130;51.728;8.748;2022-12-24T00:27:49;29.38;;;10.75;;
34924;SDS011;21130;51.728;8.748;2022-12-24T00:30:15;18.35;;;10.85;;
34924;SDS011;21130;51.728;8.748;2022-12-24T00:32:42;24.02;;;11.93;;
34924;SDS011;21130;51.728;8.748;2022-12-24T00:35:08;18.48;;;10.55;;
34924;SDS011;21130;51.728;8.748;2022-12-24T00:37:36;26.33;;;9.70;;
34924;SDS011;21130;51.728;8.748;2022-12-24T00:40:03;20.08;;;9.57;;
34924;SDS011;21130;51.728;8.748;2022-12-24T00:42:30;25.42;;;10.23;;
34924;SDS011;21130;51.728;8.748;2022-12-24T00:44:57;22.60;;;9.80;;
34924;SDS011;21130;51.728;8.748;2022-12-24T00:47:23;16.77;;;9.25;;
34924;SDS011;21130;51.728;8.748;2022-12-24T00:49:49;25.48;;;10.15;;
34924;SDS011;21130;51.728;8.748;2022-12-24T00:52:16;19.60;;;9.13;;
34924;SDS011;21130;51.728;8.748;2022-12-24T00:54:44;14.90;;;9.35;;
34924;SDS011;21130;51.728;8.748;2022-12-24T00:57:10;16.55;;;8.90;;
34924;SDS011;21130;51.728;8.748;2022-12-24T00:59:36;16.63;;;8.80;;
34924;SDS011;21130;51.728;8.748;2022-12-24T01:02:04;22.60;;;9.48;;
34924;SDS011;21130;51.728;8.748;2022-12-24T01:04:30;17.35;;;9.68;;
34924;SDS011;21130;51.728;8.748;2022-12-24T01:07:14;19.48;;;9.57;;
34924;SDS011;21130;51.728;8.748;2022-12-24T01:09:40;19.73;;;9.32;;
34924;SDS011;21130;51.728;8.748;2022-12-24T01:12:08;23.80;;;9.38;;
34924;SDS011;21130;51.728;8.748;2022-12-24T01:14:35;21.63;;;9.32;;
34924;SDS011;21130;51.728;8.748;2022-12-24T01:17:02;16.38;;;8.80;;
34924;SDS011;21130;51.728;8.748;2022-12-24T01:19:28;23.83;;;9.52;;
34924;SDS011;21130;51.728;8.748;2022-12-24T01:21:54;23.77;;;9.40;;
34924;SDS011;21130;51.728;8.748;2022-12-24T01:24:21;21.55;;;8.75;;
34924;SDS011;21130;51.728;8.748;2022-12-24T01:26:47;26.63;;;8.82;;
34924;SDS011;21130;51.728;8.748;2022-12-24T01:29:17;19.10;;;7.75;;
34924;SDS011;21130;51.728;8.748;2022-12-24T01:31:43;19.35;;;7.90;;
34924;SDS011;21130;51.728;8.748;2022-12-24T01:34:10;16.48;;;6.65;;
34924;SDS011;21130;51.728;8.748;2022-12-24T01:36:36;20.52;;;6.97;;
34924;SDS011;21130;51.728;8.748;2022-12-24T01:39:03;15.00;;;6.28;;
34924;SDS011;21130;51.728;8.748;2022-12-24T01:41:30;16.55;;;6.43;;
34924;SDS011;21130;51.728;8.748;2022-12-24T01:44:17;19.45;;;7.18;;
34924;SDS011;21130;51.728;8.748;2022-12-24T01:46:45;19.90;;;7.18;;
34924;SDS011;21130;51.728;8.748;2022-12-24T01:49:13;24.08;;;7.43;;
34924;SDS011;21130;51.728;8.748;2022-12-24T01:51:41;18.50;;;6.90;;
34924;SDS011;21130;51.728;8.748;2022-12-24T01:54:12;19.48;;;7.03;;
34924;SDS011;21130;51.728;8.748;2022-12-24T01:56:44;20.15;;;7.80;;
34924;SDS011;21130;51.728;8.748;2022-12-24T01:59:14;16.73;;;7.43;;
34924;SDS011;21130;51.728;8.748;2022-12-24T02:01:44;22.02;;;7.35;;
34924;SDS011;21130;51.728;8.748;2022-12-24T02:04:12;21.60;;;7.78;;
34924;SDS011;21130;51.728;8.748;2022-12-24T02:06:48;22.70;;;7.70;;
34924;SDS011;21130;51.728;8.748;2022-12-24T02:09:15;19.70;;;7.38;;
34924;SDS011;21130;51.728;8.748;2022-12-24T02:11:41;21.30;;;7.57;;
34924;SDS011;21130;51.728;8.748;2022-12-24T02:14:08;19.75;;;8.15;;
34924;SDS011;21130;51.728;8.748;2022-12-24T02:16:40;20.33;;;7.40;;
34924;SDS011;21130;51.728;8.748;2022-12-24T02:19:18;24.55;;;7.65;;
34924;SDS011;21130;51.728;8.748;2022-12-24T02:22:06;26.40;;;7.88;;
34924;SDS011;21130;51.728;8.748;2022-12-24T02:24:51;22.25;;;8.07;;
34924;SDS011;21130;51.728;8.748;2022-12-24T02:27:29;25.10;;;7.85;;
34924;SDS011;21130;51.728;8.748;2022-12-24T02:30:13;18.10;;;6.60;;
34924;SDS011;21130;51.728;8.748;2022-12-24T02:33:10;17.35;;;6.80;;
34924;SDS011;21130;51.728;8.748;2022-12-24T02:35:46;22.70;;;6.57;;
34924;SDS011;21130;51.728;8.748;2022-12-24T02:38:19;21.33;;;6.53;;
34924;SDS011;21130;51.728;8.748;2022-12-24T02:40:51;20.02;;;6.15;;
34924;SDS011;21130;51.728;8.748;2022-12-24T02:43:23;21.15;;;6.75;;
34924;SDS011;21130;51.728;8.748;2022-12-24T02:45:58;22.08;;;6.18;;
34924;SDS011;21130;51.728;8.748;2022-12-24T02:48:28;23.35;;;7.00;;
34924;SDS011;21130;51.728;8.748;2022-12-24T02:50:58;24.45;;;6.50;;
34924;SDS011;21130;51.728;8.748;2022-12-24T02:53:28;22.25;;;6.30;;
34924;SDS011;21130;51.728;8.748;2022-12-24T02:56:12;19.70;;;6.22;;
34924;SDS011;21130;51.728;8.748;2022-12-24T02:58:58;21.98;;;6.78;;
34924;SDS011;21130;51.728;8.748;2022-12-24T03:01:41;21.48;;;6.55;;
34924;SDS011;21130;51.728;8.748;2022-12-24T03:04:18;17.17;;;5.43;;
34924;SDS011;21130;51.728;8.748;2022-12-24T03:07:05;18.15;;;5.82;;
34924;SDS011;21130;51.728;8.748;2022-12-24T03:09:38;19.90;;;5.75;;
34924;SDS011;21130;51.728;8.748;2022-12-24T03:12:17;19.85;;;6.22;;
34924;SDS011;21130;51.728;8.748;2022-12-24T03:14:47;17.15;;;5.85;;
34924;SDS011;21130;51.728;8.748;2022-12-24T03:17:17;21.00;;;6.22;;
34924;SDS011;21130;51.728;8.748;2022-12-24T03:19:44;22.27;;;5.65;;
34924;SDS011;21130;51.728;8.748;2022-12-24T03:22:12;16.50;;;5.32;;
34924;SDS011;21130;51.728;8.748;2022-12-24T03:24:41;20.42;;;6.47;;
34924;SDS011;21130;51.728;8.748;2022-12-24T03:27:07;24.13;;;6.28;;
34924;SDS011;21130;51.728;8.748;2022-12-24T03:29:37;22.33;;;5.97;;
34924;SDS011;21130;51.728;8.748;2022-12-24T03:32:03;21.30;;;6.13;;
34924;SDS011;21130;51.728;8.748;2022-12-24T03:34:31;24.23;;;6.68;;
34924;SDS011;21130;51.728;8.748;2022-12-24T03:36:58;24.02;;;6.30;;
34924;SDS011;21130;51.728;8.748;2022-12-24T03:39:25;22.55;;;6.10;;
34924;SDS011;21130;51.728;8.748;2022-12-24T03:41:51;23.85;;;6.60;;
34924;SDS011;21130;51.728;8.748;2022-12-24T03:44:18;23.13;;;6.70;;
34924;SDS011;21130;51.728;8.748;2022-12-24T03:46:45;23.75;;;6.53;;
34924;SDS011;21130;51.728;8.748;2022-12-24T03:49:11;32.25;;;7.25;;
34924;SDS011;21130;51.728;8.748;2022-12-24T03:51:39;21.70;;;5.72;;
34924;SDS011;21130;51.728;8.748;2022-12-24T03:54:05;29.63;;;6.53;;
34924;SDS011;21130;51.728;8.748;2022-12-24T03:56:32;24.08;;;6.97;;
34924;SDS011;21130;51.728;8.748;2022-12-24T03:58:58;24.05;;;6.30;;
34924;SDS011;21130;51.728;8.748;2022-12-24T04:01:25;26.13;;;6.13;;
34924;SDS011;21130;51.728;8.748;2022-12-24T04:03:51;21.50;;;6.45;;
34924;SDS011;21130;51.728;8.748;2022-12-24T04:06:17;23.73;;;6.28;;
34924;SDS011;21130;51.728;8.748;2022-12-24T04:08:45;23.23;;;6.20;;
34924;SDS011;21130;51.728;8.748;2022-12-24T04:11:12;26.45;;;6.85;;
34924;SDS011;21130;51.728;8.748;2022-12-24T04:13:39;19.52;;;6.57;;
34924;SDS011;21130;51.728;8.748;2022-12-24T04:16:07;32.05;;;7.20;;
34924;SDS011;21130;51.728;8.748;2022-12-24T04:18:53;23.08;;;6.47;;
34924;SDS011;21130;51.728;8.748;2022-12-24T04:21:40;22.77;;;6.03;;
34924;SDS011;21130;51.728;8.748;2022-12-24T04:24:08;23.55;;;6.50;;
34924;SDS011;21130;51.728;8.748;2022-12-24T04:26:34;22.80;;;6.10;;
34924;SDS011;21130;51.728;8.748;2022-12-24T04:29:00;21.85;;;6.38;;
34924;SDS011;21130;51.728;8.748;2022-12-24T04:31:27;18.23;;;7.20;;
34924;SDS011;21130;51.728;8.748;2022-12-24T04:33:53;21.92;;;6.30;;
34924;SDS011;21130;51.728;8.748;2022-12-24T04:36:19;18.70;;;6.30;;
34924;SDS011;21130;51.728;8.748;2022-12-24T04:38:47;24.50;;;7.20;;
34924;SDS011;21130;51.728;8.748;2022-12-24T04:41:16;23.70;;;6.45;;
34924;SDS011;21130;51.728;8.748;2022-12-24T04:43:44;22.05;;;6.00;;
34924;SDS011;21130;51.728;8.748;2022-12-24T04:46:11;27.55;;;6.80;;
34924;SDS011;21130;51.728;8.748;2022-12-24T04:48:40;28.52;;;6.75;;
34924;SDS011;21130;51.728;8.748;2022-12-24T04:51:07;26.98;;;6.30;;
34924;SDS011;21130;51.728;8.748;2022-12-24T04:53:34;23.70;;;6.05;;
34924;SDS011;21130;51.728;8.748;2022-12-24T04:56:01;23.30;;;5.90;;
34924;SDS011;21130;51.728;8.748;2022-12-24T04:58:29;23.95;;;6.40;;
34924;SDS011;21130;51.728;8.748;2022-12-24T05:00:55;21.02;;;5.95;;
34924;SDS011;21130;51.728;8.748;2022-12-24T05:03:22;23.75;;;6.72;;
34924;SDS011;21130;51.728;8.748;2022-12-24T05:05:48;27.27;;;7.45;;
34924;SDS011;21130;51.728;8.748;2022-12-24T05:08:15;21.70;;;6.65;;
34924;SDS011;21130;51.728;8.748;2022-12-24T05:10:41;24.48;;;6.45;;
34924;SDS011;21130;51.728;8.748;2022-12-24T05:13:07;27.58;;;7.22;;
34924;SDS011;21130;51.728;8.748;2022-12-24T05:15:35;20.30;;;7.03;;
34924;SDS011;21130;51.728;8.748;2022-12-24T05:18:01;26.38;;;7.38;;
34924;SDS011;21130;51.728;8.748;2022-12-24T05:20:28;28.92;;;6.70;;
34924;SDS011;21130;51.728;8.748;2022-12-24T05:22:54;31.38;;;6.90;;
34924;SDS011;21130;51.728;8.748;2022-12-24T05:25:38;25.55;;;6.60;;
34924;SDS011;21130;51.728;8.748;2022-12-24T05:28:23;25.58;;;7.40;;
34924;SDS011;21130;51.728;8.748;2022-12-24T05:30:51;26.15;;;7.07;;
34924;SDS011;21130;51.728;8.748;2022-12-24T05:33:17;24.58;;;7.03;;
34924;SDS011;21130;51.728;8.748;2022-12-24T05:35:44;24.80;;;6.90;;
34924;SDS011;21130;51.728;8.748;2022-12-24T05:38:10;29.23;;;7.60;;
34924;SDS011;21130;51.728;8.748;2022-12-24T05:40:37;25.27;;;7.82;;
34924;SDS011;21130;51.728;8.748;2022-12-24T05:43:03;24.40;;;7.60;;
34924;SDS011;21130;51.728;8.748;2022-12-24T05:45:30;24.70;;;7.05;;
34924;SDS011;21130;51.728;8.748;2022-12-24T05:47:58;24.35;;;7.07;;
34924;SDS011;21130;51.728;8.748;2022-12-24T05:50:24;24.33;;;7.20;;
34924;SDS011;21130;51.728;8.748;2022-12-24T05:52:51;21.83;;;7.72;;
34924;SDS011;21130;51.728;8.748;2022-12-24T05:55:17;26.67;;;7.70;;
34924;SDS011;21130;51.728;8.748;2022-12-24T05:57:44;28.48;;;8.07;;
34924;SDS011;21130;51.728;8.748;2022-12-24T06:00:10;25.13;;;8.05;;
34924;SDS011;21130;51.728;8.748;2022-12-24T06:02:37;21.00;;;6.82;;
34924;SDS011;21130;51.728;8.748;2022-12-24T06:05:05;29.02;;;7.95;;
34924;SDS011;21130;51.728;8.748;2022-12-24T06:07:31;29.20;;;7.70;;
34924;SDS011;21130;51.728;8.748;2022-12-24T06:09:58;26.40;;;7.35;;
34924;SDS011;21130;51.728;8.748;2022-12-24T06:12:24;25.73;;;7.85;;
34924;SDS011;21130;51.728;8.748;2022-12-24T06:14:51;28.45;;;7.70;;
34924;SDS011;21130;51.728;8.748;2022-12-24T06:17:17;22.10;;;7.47;;
34924;SDS011;21130;51.728;8.748;2022-12-24T06:19:43;27.05;;;8.30;;
34924;SDS011;21130;51.728;8.748;2022-12-24T06:22:11;28.00;;;8.32;;
34924;SDS011;21130;51.728;8.748;2022-12-24T06:24:38;30.25;;;8.73;;
34924;SDS011;21130;51.728;8.748;2022-12-24T06:27:04;34.20;;;9.52;;
34924;SDS011;21130;51.728;8.748;2022-12-24T06:29:30;31.30;;;8.40;;
34924;SDS011;21130;51.728;8.748;2022-12-24T06:31:57;35.42;;;9.75;;
34924;SDS011;21130;51.728;8.748;2022-12-24T06:34:23;31.85;;;9.07;;
34924;SDS011;21130;51.728;8.748;2022-12-24T06:36:50;26.25;;;8.45;;
34924;SDS011;21130;51.728;8.748;2022-12-24T06:39:17;41.03;;;9.77;;
34924;SDS011;21130;51.728;8.748;2022-12-24T06:41:44;32.15;;;10.23;;
34924;SDS011;21130;51.728;8.748;2022-12-24T06:44:11;29.48;;;8.90;;
34924;SDS011;21130;51.728;8.748;2022-12-24T06:46:38;34.17;;;9.48;;
34924;SDS011;21130;51.728;8.748;2022-12-24T06:49:04;31.17;;;8.55;;
34924;SDS011;21130;51.728;8.748;2022-12-24T06:51:30;27.05;;;9.15;;
34924;SDS011;21130;51.728;8.748;2022-12-24T06:53:57;28.40;;;9.10;;
34924;SDS011;21130;51.728;8.748;2022-12-24T06:56:24;32.50;;;8.38;;
34924;SDS011;21130;51.728;8.748;2022-12-24T06:58:51;28.85;;;8.82;;
34924;SDS011;21130;51.728;8.748;2022-12-24T07:01:18;24.20;;;8.43;;
34924;SDS011;21130;51.728;8.748;2022-12-24T07:03:45;28.75;;;8.55;;
34924;SDS011;21130;51.728;8.748;2022-12-24T07:06:14;38.80;;;8.85;;
34924;SDS011;21130;51.728;8.748;2022-12-24T07:08:44;30.52;;;8.57;;
34924;SDS011;21130;51.728;8.748;2022-12-24T07:11:10;26.58;;;9.18;;
34924;SDS011;21130;51.728;8.748;2022-12-24T07:13:38;30.77;;;7.97;;
34924;SDS011;21130;51.728;8.748;2022-12-24T07:16:04;35.53;;;9.90;;
34924;SDS011;21130;51.728;8.748;2022-12-24T07:18:31;26.02;;;9.07;;
34924;SDS011;21130;51.728;8.748;2022-12-24T07:20:58;25.88;;;8.70;;
34924;SDS011;21130;51.728;8.748;2022-12-24T07:23:25;24.38;;;8.48;;
34924;SDS011;21130;51.728;8.748;2022-12-24T07:25:52;31.98;;;8.98;;
34924;SDS011;21130;51.728;8.748;2022-12-24T07:28:18;27.63;;;8.35;;
34924;SDS011;21130;51.728;8.748;2022-12-24T07:30:46;29.55;;;9.75;;
34924;SDS011;21130;51.728;8.748;2022-12-24T07:33:13;26.30;;;9.05;;
34924;SDS011;21130;51.728;8.748;2022-12-24T07:35:39;25.15;;;9.00;;
34924;SDS011;21130;51.728;8.748;2022-12-24T07:38:06;26.95;;;7.90;;
34924;SDS011;21130;51.728;8.748;2022-12-24T07:40:32;26.75;;;8.55;;
34924;SDS011;21130;51.728;8.748;2022-12-24T07:42:59;24.83;;;7.97;;
34924;SDS011;21130;51.728;8.748;2022-12-24T07:45:26;24.67;;;8.27;;
34924;SDS011;21130;51.728;8.748;2022-12-24T07:47:54;22.42;;;8.40;;
34924;SDS011;21130;51.728;8.748;2022-12-24T07:50:20;25.70;;;8.25;;
34924;SDS011;21130;51.728;8.748;2022-12-24T07:52:47;26.83;;;7.95;;
34924;SDS011;21130;51.728;8.748;2022-12-24T07:55:13;22.27;;;7.25;;
34924;SDS011;21130;51.728;8.748;2022-12-24T07:57:39;24.98;;;7.95;;
34924;SDS011;21130;51.728;8.748;2022-12-24T08:00:07;20.77;;;7.30;;
34924;SDS011;21130;51.728;8.748;2022-12-24T08:02:34;19.70;;;7.55;;
34924;SDS011;21130;51.728;8.748;2022-12-24T08:05:02;27.23;;;7.90;;
34924;SDS011;21130;51.728;8.748;2022-12-24T08:07:29;20.63;;;7.70;;
34924;SDS011;21130;51.728;8.748;2022-12-24T08:09:55;18.58;;;6.78;;
34924;SDS011;21130;51.728;8.748;2022-12-24T08:12:22;18.35;;;7.13;;
34924;SDS011;21130;51.728;8.748;2022-12-24T08:14:48;22.73;;;7.05;;
34924;SDS011;21130;51.728;8.748;2022-12-24T08:17:14;23.52;;;7.60;;
34924;SDS011;21130;51.728;8.748;2022-12-24T08:19:41;21.70;;;6.50;;
34924;SDS011;21130;51.728;8.748;2022-12-24T08:22:09;16.50;;;6.53;;
34924;SDS011;21130;51.728;8.748;2022-12-24T08:24:35;20.92;;;7.00;;
34924;SDS011;21130;51.728;8.748;2022-12-24T08:27:02;24.42;;;7.78;;
34924;SDS011;21130;51.728;8.748;2022-12-24T08:29:29;22.35;;;6.57;;
34924;SDS011;21130;51.728;8.748;2022-12-24T08:31:55;24.65;;;7.00;;
34924;SDS011;21130;51.728;8.748;2022-12-24T08:34:21;19.27;;;6.88;;
34924;SDS011;21130;51.728;8.748;2022-12-24T08:36:48;22.08;;;7.57;;
34924;SDS011;21130;51.728;8.748;2022-12-24T08:39:15;21.65;;;7.25;;
34924;SDS011;21130;51.728;8.748;2022-12-24T08:41:43;20.63;;;7.75;;
34924;SDS011;21130;51.728;8.748;2022-12-24T08:44:09;27.35;;;6.97;;
34924;SDS011;21130;51.728;8.748;2022-12-24T08:46:36;20.92;;;6.75;;
34924;SDS011;21130;51.728;8.748;2022-12-24T08:49:03;15.60;;;5.68;;
34924;SDS011;21130;51.728;8.748;2022-12-24T08:51:29;23.30;;;6.85;;
34924;SDS011;21130;51.728;8.748;2022-12-24T08:53:55;19.33;;;5.85;;
34924;SDS011;21130;51.728;8.748;2022-12-24T08:56:23;17.40;;;5.72;;
34924;SDS011;21130;51.728;8.748;2022-12-24T08:58:49;29.23;;;6.72;;
34924;SDS011;21130;51.728;8.748;2022-12-24T09:01:17;23.10;;;5.97;;
34924;SDS011;21130;51.728;8.748;2022-12-24T09:03:44;16.65;;;5.55;;
34924;SDS011;21130;51.728;8.748;2022-12-24T09:06:11;20.15;;;5.88;;
34924;SDS011;21130;51.728;8.748;2022-12-24T09:08:39;20.70;;;5.75;;
34924;SDS011;21130;51.728;8.748;2022-12-24T09:11:05;23.67;;;6.50;;
34924;SDS011;21130;51.728;8.748;2022-12-24T09:13:36;21.45;;;6.35;;
34924;SDS011;21130;51.728;8.748;2022-12-24T09:16:03;16.65;;;5.25;;
34924;SDS011;21130;51.728;8.748;2022-12-24T09:18:30;22.85;;;5.70;;
34924;SDS011;21130;51.728;8.748;2022-12-24T09:20:59;18.33;;;6.10;;
34924;SDS011;21130;51.728;8.748;2022-12-24T09:23:27;25.63;;;6.32;;
34924;SDS011;21130;51.728;8.748;2022-12-24T09:25:54;23.17;;;6.43;;
34924;SDS011;21130;51.728;8.748;2022-12-24T09:28:21;23.48;;;5.95;;
34924;SDS011;21130;51.728;8.748;2022-12-24T09:30:56;21.95;;;5.65;;
34924;SDS011;21130;51.728;8.748;2022-12-24T09:33:23;21.40;;;6.30;;
34924;SDS011;21130;51.728;8.748;2022-12-24T09:35:50;18.45;;;5.25;;
34924;SDS011;21130;51.728;8.748;2022-12-24T09:38:17;19.80;;;5.93;;
34924;SDS011;21130;51.728;8.748;2022-12-24T09:40:44;24.33;;;6.97;;
34924;SDS011;21130;51.728;8.748;2022-12-24T09:43:12;24.17;;;7.20;;
34924;SDS011;21130;51.728;8.748;2022-12-24T09:45:43;18.33;;;6.35;;
34924;SDS011;21130;51.728;8.748;2022-12-24T09:48:16;21.98;;;6.78;;
34924;SDS011;21130;51.728;8.748;2022-12-24T09:50:48;22.27;;;6.72;;
34924;SDS011;21130;51.728;8.748;2022-12-24T09:53:19;26.50;;;7.13;;
34924;SDS011;21130;51.728;8.748;2022-12-24T09:55:49;19.42;;;6.47;;
34924;SDS011;21130;51.728;8.748;2022-12-24T09:58:19;23.83;;;6.50;;
34924;SDS011;21130;51.728;8.748;2022-12-24T10:00:49;19.98;;;7.93;;
34924;SDS011;21130;51.728;8.748;2022-12-24T10:03:18;23.90;;;7.27;;
34924;SDS011;21130;51.728;8.748;2022-12-24T10:05:46;22.10;;;7.60;;
34924;SDS011;21130;51.728;8.748;2022-12-24T10:08:22;20.83;;;7.22;;
34924;SDS011;21130;51.728;8.748;2022-12-24T10:10:57;22.17;;;7.18;;
34924;SDS011;21130;51.728;8.748;2022-12-24T10:13:35;26.10;;;7.30;;
34924;SDS011;21130;51.728;8.748;2022-12-24T10:16:10;24.27;;;6.65;;
34924;SDS011;21130;51.728;8.748;2022-12-24T10:18:49;22.38;;;6.95;;
34924;SDS011;21130;51.728;8.748;2022-12-24T10:21:24;26.80;;;7.40;;
34924;SDS011;21130;51.728;8.748;2022-12-24T10:24:00;18.25;;;6.22;;
34924;SDS011;21130;51.728;8.748;2022-12-24T10:26:33;19.10;;;7.10;;
34924;SDS011;21130;51.728;8.748;2022-12-24T10:29:11;17.60;;;6.45;;
34924;SDS011;21130;51.728;8.748;2022-12-24T10:31:42;18.85;;;6.00;;
34924;SDS011;21130;51.728;8.748;2022-12-24T10:34:18;21.92;;;6.45;;
34924;SDS011;21130;51.728;8.748;2022-12-24T10:36:47;18.42;;;5.88;;
34924;SDS011;21130;51.728;8.748;2022-12-24T10:39:15;18.70;;;6.13;;
34924;SDS011;21130;51.728;8.748;2022-12-24T10:41:44;20.42;;;7.80;;
34924;SDS011;21130;51.728;8.748;2022-12-24T10:44:12;21.55;;;7.40;;
34924;SDS011;21130;51.728;8.748;2022-12-24T10:46:41;23.38;;;7.22;;
34924;SDS011;21130;51.728;8.748;2022-12-24T10:49:11;19.65;;;6.22;;
34924;SDS011;21130;51.728;8.748;2022-12-24T10:51:42;18.77;;;5.93;;
34924;SDS011;21130;51.728;8.748;2022-12-24T10:54:14;18.17;;;5.68;;
34924;SDS011;21130;51.728;8.748;2022-12-24T10:56:43;22.95;;;6.15;;
34924;SDS011;21130;51.728;8.748;2022-12-24T10:59:24;24.90;;;6.28;;
34924;SDS011;21130;51.728;8.748;2022-12-24T11:01:52;21.58;;;6.72;;
34924;SDS011;21130;51.728;8.748;2022-12-24T11:04:21;19.30;;;6.18;;
34924;SDS011;21130;51.728;8.748;2022-12-24T11:06:54;20.80;;;6.13;;
34924;SDS011;21130;51.728;8.748;2022-12-24T11:09:23;25.88;;;7.22;;
34924;SDS011;21130;51.728;8.748;2022-12-24T11:11:51;22.90;;;7.28;;
34924;SDS011;21130;51.728;8.748;2022-12-24T11:14:18;23.40;;;6.47;;
34924;SDS011;21130;51.728;8.748;2022-12-24T11:16:47;25.60;;;7.10;;
34924;SDS011;21130;51.728;8.748;2022-12-24T11:19:17;24.55;;;7.45;;
34924;SDS011;21130;51.728;8.748;2022-12-24T11:21:44;25.33;;;8.30;;
34924;SDS011;21130;51.728;8.748;2022-12-24T11:24:19;19.55;;;5.55;;
34924;SDS011;21130;51.728;8.748;2022-12-24T11:26:51;26.40;;;6.90;;
34924;SDS011;21130;51.728;8.748;2022-12-24T11:29:19;21.90;;;6.47;;
34924;SDS011;21130;51.728;8.748;2022-12-24T11:31:47;23.45;;;6.63;;
34924;SDS011;21130;51.728;8.748;2022-12-24T11:34:18;20.92;;;6.80;;
34924;SDS011;21130;51.728;8.748;2022-12-24T11:36:48;24.30;;;6.85;;
34924;SDS011;21130;51.728;8.748;2022-12-24T11:39:18;21.38;;;6.05;;
34924;SDS011;21130;51.728;8.748;2022-12-24T11:41:47;23.48;;;7.65;;
34924;SDS011;21130;51.728;8.748;2022-12-24T11:44:22;20.20;;;6.28;;
34924;SDS011;21130;51.728;8.748;2022-12-24T11:46:51;28.60;;;8.35;;
34924;SDS011;21130;51.728;8.748;2022-12-24T11:49:22;18.98;;;7.10;;
34924;SDS011;21130;51.728;8.748;2022-12-24T11:58:11;20.77;;;6.68;;
34924;SDS011;21130;51.728;8.748;2022-12-24T12:00:43;21.02;;;6.97;;
34924;SDS011;21130;51.728;8.748;2022-12-24T12:03:16;25.60;;;7.70;;
34924;SDS011;21130;51.728;8.748;2022-12-24T12:05:55;21.90;;;7.20;;
34924;SDS011;21130;51.728;8.748;2022-12-24T12:08:25;16.98;;;6.88;;
34924;SDS011;21130;51.728;8.748;2022-12-24T12:10:54;20.20;;;6.43;;
34924;SDS011;21130;51.728;8.748;2022-12-24T12:13:28;21.55;;;7.55;;
34924;SDS011;21130;51.728;8.748;2022-12-24T12:16:02;22.58;;;7.60;;
34924;SDS011;21130;51.728;8.748;2022-12-24T12:18:38;20.85;;;7.18;;
34924;SDS011;21130;51.728;8.748;2022-12-24T12:21:08;20.55;;;7.80;;
34924;SDS011;21130;51.728;8.748;2022-12-24T12:23:41;22.83;;;7.72;;
34924;SDS011;21130;51.728;8.748;2022-12-24T12:26:13;24.27;;;7.22;;
34924;SDS011;21130;51.728;8.748;2022-12-24T12:28:46;22.15;;;8.50;;
34924;SDS011;21130;51.728;8.748;2022-12-24T12:31:17;19.05;;;6.90;;
34924;SDS011;21130;51.728;8.748;2022-12-24T12:33:49;26.17;;;7.35;;
34924;SDS011;21130;51.728;8.748;2022-12-24T12:36:21;25.65;;;7.38;;
34924;SDS011;21130;51.728;8.748;2022-12-24T12:38:51;24.90;;;6.68;;
34924;SDS011;21130;51.728;8.748;2022-12-24T12:41:22;23.75;;;7.18;;
34924;SDS011;21130;51.728;8.748;2022-12-24T12:44:01;25.75;;;7.10;;
34924;SDS011;21130;51.728;8.748;2022-12-24T12:46:47;20.45;;;7.13;;
34924;SDS011;21130;51.728;8.748;2022-12-24T12:49:28;24.90;;;6.68;;
34924;SDS011;21130;51.728;8.748;2022-12-24T12:52:07;19.98;;;6.55;;
34924;SDS011;21130;51.728;8.748;2022-12-24T12:54:47;20.35;;;6.68;;
34924;SDS011;21130;51.728;8.748;2022-12-24T12:57:21;23.52;;;7.63;;
34924;SDS011;21130;51.728;8.748;2022-12-24T12:59:55;27.08;;;7.22;;
34924;SDS011;21130;51.728;8.748;2022-12-24T13:02:34;23.13;;;7.78;;
34924;SDS011;21130;51.728;8.748;2022-12-24T13:05:36;22.23;;;7.20;;
34924;SDS011;21130;51.728;8.748;2022-12-24T13:08:21;23.55;;;7.03;;
34924;SDS011;21130;51.728;8.748;2022-12-24T13:11:04;19.95;;;6.53;;
34924;SDS011;21130;51.728;8.748;2022-12-24T13:13:46;21.73;;;7.28;;
34924;SDS011;21130;51.728;8.748;2022-12-24T13:16:39;21.77;;;6.75;;
34924;SDS011;21130;51.728;8.748;2022-12-24T13:19:23;20.95;;;6.22;;
34924;SDS011;21130;51.728;8.748;2022-12-24T13:22:01;20.45;;;6.95;;
34924;SDS011;21130;51.728;8.748;2022-12-24T13:24:28;21.17;;;6.30;;
34924;SDS011;21130;51.728;8.748;2022-12-24T13:27:02;16.33;;;6.40;;
34924;SDS011;21130;51.728;8.748;2022-12-24T13:29:39;21.75;;;6.45;;
34924;SDS011;21130;51.728;8.748;2022-12-24T13:35:33;22.48;;;6.47;;
34924;SDS011;21130;51.728;8.748;2022-12-24T13:44:00;21.35;;;6.90;;
34924;SDS011;21130;51.728;8.748;2022-12-24T13:49:18;23.13;;;6.60;;
34924;SDS011;21130;51.728;8.748;2022-12-24T13:52:07;22.60;;;7.30;;
34924;SDS011;21130;51.728;8.748;2022-12-24T13:55:10;22.60;;;6.70;;
34924;SDS011;21130;51.728;8.748;2022-12-24T13:57:41;23.60;;;6.00;;
34924;SDS011;21130;51.728;8.748;2022-12-24T14:00:26;24.65;;;6.72;;
34924;SDS011;21130;51.728;8.748;2022-12-24T14:02:57;23.02;;;6.88;;
34924;SDS011;21130;51.728;8.748;2022-12-24T14:05:31;19.00;;;6.30;;
34924;SDS011;21130;51.728;8.748;2022-12-24T14:08:00;19.17;;;6.07;;
34924;SDS011;21130;51.728;8.748;2022-12-24T14:10:30;21.30;;;6.43;;
34924;SDS011;21130;51.728;8.748;2022-12-24T14:13:02;22.85;;;6.93;;
34924;SDS011;21130;51.728;8.748;2022-12-24T14:15:58;20.27;;;6.65;;
34924;SDS011;21130;51.728;8.748;2022-12-24T14:18:28;21.42;;;8.65;;
34924;SDS011;21130;51.728;8.748;2022-12-24T14:21:00;22.33;;;6.90;;
34924;SDS011;21130;51.728;8.748;2022-12-24T14:23:30;23.67;;;7.10;;
34924;SDS011;21130;51.728;8.748;2022-12-24T14:26:02;20.20;;;6.53;;
34924;SDS011;21130;51.728;8.748;2022-12-24T14:28:35;19.58;;;6.18;;
34924;SDS011;21130;51.728;8.748;2022-12-24T14:31:12;20.98;;;6.72;;
34924;SDS011;21130;51.728;8.748;2022-12-24T14:33:41;24.33;;;6.80;;
34924;SDS011;21130;51.728;8.748;2022-12-24T14:36:09;23.15;;;7.35;;
34924;SDS011;21130;51.728;8.748;2022-12-24T14:38:39;21.10;;;6.57;;
34924;SDS011;21130;51.728;8.748;2022-12-24T14:41:10;25.27;;;6.68;;
34924;SDS011;21130;51.728;8.748;2022-12-24T14:43:49;21.42;;;6.13;;
34924;SDS011;21130;51.728;8.748;2022-12-24T14:46:23;22.83;;;7.90;;
34924;SDS011;21130;51.728;8.748;2022-12-24T14:48:57;25.48;;;7.40;;
34924;SDS011;21130;51.728;8.748;2022-12-24T14:51:32;19.85;;;6.90;;
34924;SDS011;21130;51.728;8.748;2022-12-24T14:54:11;28.20;;;7.20;;
34924;SDS011;21130;51.728;8.748;2022-12-24T14:57:10;23.83;;;6.78;;
34924;SDS011;21130;51.728;8.748;2022-12-24T14:59:40;21.50;;;7.53;;
34924;SDS011;21130;51.728;8.748;2022-12-24T15:02:20;24.88;;;7.95;;
34924;SDS011;21130;51.728;8.748;2022-12-24T15:05:02;18.95;;;7.55;;
34924;SDS011;21130;51.728;8.748;2022-12-24T15:07:42;19.17;;;6.63;;
34924;SDS011;21130;51.728;8.748;2022-12-24T15:10:23;20.85;;;5.90;;